Monday, September 25, 2017, 5:52 AM EDT
Back to Local

KIPT, Williamsport-lycoming County

Location: Montoursville, PA, United States Lat: 41.25
Local Time: 5:52 AM EDT ( 9:52 GMT) Lon: -76.917
Time Zone: US/Eastern Elev: 528 ft

Show me the last for .
Show Decoded

2017-09-25 04:54 METAR KIPT 250854Z AUTO 00000KT 7SM CLR 19/18 A3008 RMK AO2 SLP181 T01940183
                 55000 $ =
2017-09-25 03:54 METAR KIPT 250754Z AUTO 00000KT 9SM CLR 19/18 A3007 RMK AO2 SLP177 T01890178 $ =
2017-09-25 02:54 METAR KIPT 250654Z AUTO 00000KT 7SM CLR 19/19 A3007 RMK AO2 SLP178 T01940189 $ =
2017-09-25 01:54 METAR KIPT 250554Z AUTO 00000KT 8SM CLR 20/19 A3008 RMK AO2 SLP180 T02000194
                 10250 20194 57004 $ =
2017-09-25 00:54 METAR KIPT 250454Z AUTO 28003KT 10SM CLR 20/19 A3008 RMK AO2 SLP182 T02000189
                 403440172 $ =
2017-09-24 23:54 METAR KIPT 250354Z AUTO 00000KT 10SM CLR 20/19 A3009 RMK AO2 SLP184 T02000189 $
                 =
2017-09-24 22:54 METAR KIPT 250254Z AUTO 00000KT 10SM CLR 21/20 A3009 RMK AO2 SLP186 T02110200
                 51010 =
2017-09-24 21:54 METAR KIPT 250154Z 00000KT 10SM CLR 23/20 A3009 RMK AO2 SLP185 T02280200 =
2017-09-24 20:54 METAR KIPT 250054Z 00000KT 10SM CLR 23/20 A3008 RMK AO2 SLP181 T02330200 =
2017-09-24 19:54 METAR KIPT 242354Z 25003KT 10SM CLR 24/20 A3006 RMK AO2 SLP176 T02440200 10344
                 20244 53010 =
2017-09-24 18:54 METAR KIPT 242254Z 00000KT 10SM CLR 27/21 A3004 RMK AO2 SLP170 T02720211 =
2017-09-24 17:54 METAR KIPT 242154Z 00000KT 10SM CLR 31/21 A3004 RMK AO2 SLP167 T03110211 =
2017-09-24 16:54 METAR KIPT 242054Z 07005KT 10SM CLR 34/18 A3003 RMK AO2 SLP165 T03390178 56016 =
2017-09-24 15:54 METAR KIPT 241954Z 04006KT 10SM CLR 34/17 A3004 RMK AO2 SLP170 T03440172 =
2017-09-24 14:54 METAR KIPT 241854Z VRB05KT 10SM CLR 34/17 A3006 RMK AO2 SLP175 T03390167 =
2017-09-24 13:54 METAR KIPT 241754Z 03010KT 10SM FEW080 34/17 A3008 RMK AO2 SLP181 T03390172
                 10339 20183 58021 =
2017-09-24 12:54 METAR KIPT 241654Z 22008KT 10SM CLR 31/20 A3010 RMK AO2 SLP188 T03060200 =
2017-09-24 11:54 METAR KIPT 241554Z 25006KT 10SM CLR 29/19 A3013 RMK AO2 SLP198 T02890194 =
2017-09-24 10:54 METAR KIPT 241454Z 26006KT 10SM CLR 26/19 A3014 RMK AO2 SLP203 T02610189 58007 =
2017-09-24 09:54 METAR KIPT 241354Z 26005KT 10SM CLR 23/18 A3015 RMK AO2 SLP206 T02280178 =
2017-09-24 08:54 METAR KIPT 241254Z 28004KT 10SM CLR 20/17 A3016 RMK AO2 SLP210 T02000172 =
2017-09-24 07:54 METAR KIPT 241154Z 28003KT 10SM FEW006 18/17 A3016 RMK AO2 SLP211 T01830167
                 10183 20172 53011 =
2017-09-24 06:54 METAR KIPT 241054Z 00000KT 10SM FEW006 17/16 A3015 RMK AO2 SLP206 T01720161 =
2017-09-24 05:54 METAR KIPT 240954Z AUTO 31003KT 10SM CLR 17/16 A3014 RMK AO2 SLP201 T01720161 =

Support USWX by starting your Amazon purchase here.